M I D A S
Marine Information and Data Acquisition System
Tripno 1410 of the Zeeleeuw from 2007-11-08 08:43:16 to 2007-11-08 16:57:53
Back to CruiseResearch ActivitiesStationsMapUnderway DataData graphs

EquipmentUnitsComments
TimeDGPSUTC
LatitudeDGPSDM.mWGS84
LongitudeDGPSDM.mWGS84
SpeedMeteo Stationm/sRelative wind speed
DirectionMeteo StationdegRelative wind direction
TemperatureMeteo Stationdeg CelciusAir temperature
PressureMeteo StationPaAtmospheric pressure
HumidityMeteo Station%Relative humidity
Missing or incorrect values are displayed as -999
Metereological data collected by the RV Zeeleeuw from 2007-11-08 08:44:22 to 2007-11-08 17:07:23
Time Latitude Longitude Speed Direction Temperature Pressure Humidity
2007-11-08 08:45 51°13.676 2°55.883 3.4 37 11.7 101800 88
2007-11-08 08:46 51°13.679 2°55.821 2.6 42 11.6 101800 88
2007-11-08 08:47 51°13.675 2°55.775 4 39 11.5 101810 89
2007-11-08 08:48 51°13.679 2°55.777 2 57 11.5 101810 89
2007-11-08 08:49 51°13.677 2°55.769 1.5 52 11.5 101810 90
2007-11-08 08:50 51°13.722 2°55.741 2.2 304 11.5 101800 91
2007-11-08 08:51 51°13.826 2°55.65 2.5 321 11.4 101800 91
2007-11-08 08:52 51°13.948 2°55.56 4.5 309 11.4 101800 91
2007-11-08 08:53 51°14.074 2°55.474 5.3 304 11.5 101800 91
2007-11-08 08:54 51°14.208 2°55.35 6.1 307 11.6 101800 92
2007-11-08 08:55 51°14.331 2°55.136 11.2 304 11.7 101790 92
2007-11-08 08:56 51°14.422 2°54.851 11.7 306 11.7 101780 92
2007-11-08 08:57 51°14.502 2°54.556 12.1 306 11.7 101740 93
2007-11-08 08:58 51°14.584 2°54.25 10.3 307 11.8 101770 93
2007-11-08 08:59 51°14.666 2°53.938 12.3 305 11.8 101750 93
2007-11-08 09:00 51°14.762 2°53.657 11.1 307 11.8 101760 93
2007-11-08 09:01 51°14.864 2°53.385 12.5 303 11.8 101770 93
2007-11-08 09:02 51°14.96 2°53.114 12.4 304 11.8 101740 93
2007-11-08 09:03 51°15.059 2°52.831 12.3 309 11.8 101750 93
2007-11-08 09:04 51°15.158 2°52.547 13.3 305 11.8 101730 93
2007-11-08 09:05 51°15.258 2°52.266 10.8 307 11.8 101750 93
2007-11-08 09:06 51°15.36 2°51.987 14.8 308 11.9 101750 93
2007-11-08 09:07 51°15.458 2°51.706 13.3 302 11.9 101750 93
2007-11-08 09:08 51°15.559 2°51.429 13.6 307 11.9 101740 93
2007-11-08 09:09 51°15.662 2°51.154 10.6 302 11.9 101730 93
2007-11-08 09:10 51°15.762 2°50.88 11.5 303 11.9 101730 92
2007-11-08 09:11 51°15.864 2°50.608 14.1 306 12 101730 92
2007-11-08 09:12 51°15.966 2°50.338 13.6 306 11.9 101750 92
2007-11-08 09:13 51°16.066 2°50.071 13.1 307 12 101710 92
2007-11-08 09:14 51°16.121 2°49.843 9.5 303 12 101740 92
2007-11-08 09:15 51°16.111 2°49.727 8.9 301 12 101760 92
2007-11-08 09:16 51°16.103 2°49.641 9.2 301 11.9 101740 92
2007-11-08 09:17 51°16.097 2°49.532 8.7 306 11.9 101740 92
2007-11-08 09:18 51°16.09 2°49.407 10.5 302 12 101750 92
2007-11-08 09:19 51°16.084 2°49.267 10 304 12 101740 92
2007-11-08 09:20 51°16.076 2°49.143 9.4 323 12 101750 92
2007-11-08 09:21 51°16.068 2°49.025 11 324 12 101740 92
2007-11-08 09:22 51°16.062 2°48.907 9.1 305 12 101730 92
2007-11-08 09:23 51°16.058 2°48.787 10.6 304 12 101730 91
2007-11-08 09:24 51°16.051 2°48.673 11.6 305 12 101740 91
2007-11-08 09:25 51°16.047 2°48.557 11.7 305 12 101730 91
2007-11-08 09:26 51°16.043 2°48.442 8.8 326 12 101720 91
2007-11-08 09:27 51°16.037 2°48.326 12.1 303 12 101730 91
2007-11-08 09:28 51°16.034 2°48.208 9.6 302 12 101700 90
2007-11-08 09:29 51°16.033 2°48.087 12.4 327 12 101700 90
2007-11-08 09:30 51°16.022 2°47.973 10.5 324 12 101710 90
2007-11-08 09:31 51°16.008 2°47.859 10.6 327 12 101720 90
2007-11-08 09:32 51°15.991 2°47.745 10.2 328 12.1 101720 90
2007-11-08 09:33 51°15.97 2°47.628 12 331 12 101700 90
2007-11-08 09:34 51°15.947 2°47.514 10.7 280 12.1 101690 90
2007-11-08 09:35 51°15.923 2°47.401 11.3 329 12 101710 89
2007-11-08 09:36 51°15.897 2°47.285 10.2 281 12 101710 89
2007-11-08 09:37 51°15.861 2°47.178 11.3 339 12.1 101710 89
2007-11-08 09:38 51°15.823 2°47.08 10.9 281 12.1 101700 88
2007-11-08 09:39 51°15.788 2°46.977 10.1 335 12.1 101710 88
2007-11-08 09:40 51°15.751 2°46.863 11.8 281 12.1 101710 88
2007-11-08 09:41 51°15.713 2°46.746 10.6 334 12.1 101710 88
2007-11-08 09:42 51°15.678 2°46.639 10.8 280 12.1 101700 88
2007-11-08 09:43 51°15.641 2°46.52 11.4 280 12.1 101710 88
2007-11-08 09:44 51°15.604 2°46.396 8.6 335 12.1 101710 88
2007-11-08 09:45 51°15.575 2°46.291 8.9 279 12.1 101690 88
2007-11-08 09:46 51°15.545 2°46.184 8.3 329 12.1 101700 88
2007-11-08 09:47 51°15.513 2°46.077 8.5 281 12.1 101700 88
2007-11-08 09:48 51°15.481 2°45.967 9.1 331 12.1 101710 89
2007-11-08 09:49 51°15.451 2°45.864 10.6 281 12.1 101700 89
2007-11-08 09:50 51°15.42 2°45.759 9.5 330 12.1 101690 89
2007-11-08 09:51 51°15.389 2°45.651 8.9 278 12.1 101690 89
2007-11-08 09:52 51°15.358 2°45.547 10.7 331 12.1 101690 89
2007-11-08 09:53 51°15.327 2°45.442 11 279 12.1 101680 89
2007-11-08 09:54 51°15.296 2°45.339 10.3 330 12.1 101690 89
2007-11-08 09:55 51°15.268 2°45.233 8.8 330 12.1 101680 89
2007-11-08 09:56 51°15.237 2°45.129 9 329 12.1 101680 89
2007-11-08 09:57 51°15.206 2°45.012 9.6 327 12.1 101680 89
2007-11-08 09:58 51°15.171 2°44.897 11.1 327 12.1 101660 90
2007-11-08 09:59 51°15.136 2°44.787 11.4 329 12.1 101660 90
2007-11-08 10:00 51°15.105 2°44.68 8.5 329 12.1 101650 89
2007-11-08 10:01 51°15.074 2°44.568 8.9 329 12.1 101660 90
2007-11-08 10:02 51°15.042 2°44.453 9.9 328 12.1 101660 90
2007-11-08 10:03 51°15.012 2°44.34 9.4 327 12.1 101670 90
2007-11-08 10:04 51°14.981 2°44.226 9 327 12.1 101640 91
2007-11-08 10:05 51°14.949 2°44.113 10 327 12.1 101660 90
2007-11-08 10:06 51°14.918 2°44.001 9.4 329 12.1 101650 90
2007-11-08 10:07 51°14.888 2°43.89 9.6 328 12.1 101650 90
2007-11-08 10:08 51°14.858 2°43.777 9.6 327 12.1 101660 90
2007-11-08 10:09 51°14.829 2°43.663 11.4 326 12.1 101660 91
2007-11-08 10:10 51°14.8 2°43.552 9.7 328 12.1 101650 90
2007-11-08 10:11 51°14.771 2°43.441 11 328 12.1 101650 90
2007-11-08 10:12 51°14.744 2°43.334 11.4 328 12.1 101620 90
2007-11-08 10:13 51°14.716 2°43.231 12.3 326 12.1 101640 90
2007-11-08 10:14 51°14.69 2°43.122 10.9 327 12.1 101620 90
2007-11-08 10:15 51°14.664 2°43.011 13.3 281 12.1 101630 90
2007-11-08 10:16 51°14.647 2°42.898 13 324 12.1 101630 90
2007-11-08 10:17 51°14.638 2°42.786 10.1 325 12.1 101620 90
2007-11-08 10:18 51°14.628 2°42.679 13.7 325 12.1 101620 90
2007-11-08 10:19 51°14.62 2°42.567 13.8 323 12.1 101610 90
2007-11-08 10:20 51°14.61 2°42.458 12.2 302 12.1 101610 90
2007-11-08 10:21 51°14.601 2°42.351 11.3 325 12.1 101600 90
2007-11-08 10:22 51°14.593 2°42.241 13.8 303 12.1 101620 90
2007-11-08 10:23 51°14.583 2°42.126 12.1 327 12.1 101620 90
2007-11-08 10:24 51°14.57 2°42 12.5 325 12.1 101610 90
2007-11-08 10:25 51°14.557 2°41.87 12.5 327 12.2 101630 91
2007-11-08 10:26 51°14.543 2°41.742 12.1 325 12.2 101610 91
2007-11-08 10:27 51°14.528 2°41.615 13.1 323 12.1 101610 91
2007-11-08 10:28 51°14.513 2°41.488 14.1 325 12.1 101600 91
2007-11-08 10:29 51°14.499 2°41.359 12 281 12.1 101610 91
2007-11-08 10:30 51°14.486 2°41.232 12.2 326 12.1 101590 90
2007-11-08 10:31 51°14.47 2°41.104 12.6 303 12.1 101600 90
2007-11-08 10:32 51°14.454 2°40.978 11.9 328 12.2 101580 89
2007-11-08 10:33 51°14.439 2°40.85 14.4 325 12.2 101590 89
2007-11-08 10:34 51°14.421 2°40.719 12.1 329 12.2 101600 88
2007-11-08 10:35 51°14.412 2°40.587 11.8 327 12.2 101600 88
2007-11-08 10:36 51°14.407 2°40.452 13 301 12.2 101580 88
2007-11-08 10:37 51°14.401 2°40.319 14 328 12.2 101570 87
2007-11-08 10:38 51°14.395 2°40.187 14.8 330 12.2 101560 86
2007-11-08 10:39 51°14.389 2°40.058 14.2 329 12.2 101580 85
2007-11-08 10:40 51°14.383 2°39.929 11.8 332 12.3 101580 85
2007-11-08 10:41 51°14.377 2°39.797 13.8 329 12.3 101570 85
2007-11-08 10:42 51°14.372 2°39.663 14.3 328 12.3 101580 86
2007-11-08 10:43 51°14.368 2°39.532 15.4 326 12.3 101570 86
2007-11-08 10:44 51°14.363 2°39.404 14.9 331 12.3 101590 85
2007-11-08 10:45 51°14.358 2°39.276 15.8 328 12.3 101560 85
2007-11-08 10:46 51°14.354 2°39.148 13.5 327 12.3 101550 84
2007-11-08 10:47 51°14.351 2°39.02 13.3 282 12.3 101570 83
2007-11-08 10:48 51°14.346 2°38.894 15.3 331 12.3 101570 83
2007-11-08 10:49 51°14.345 2°38.765 11.9 325 12.3 101570 84
2007-11-08 10:50 51°14.341 2°38.635 14.4 328 12.4 101550 84
2007-11-08 10:51 51°14.339 2°38.507 13.4 332 12.4 101560 84
2007-11-08 10:52 51°14.337 2°38.376 12.5 328 12.4 101560 85
2007-11-08 10:53 51°14.331 2°38.249 13.5 333 12.4 101560 85
2007-11-08 10:54 51°14.291 2°38.145 11.2 340 12.3 101550 84
2007-11-08 10:55 51°14.251 2°38.041 12 338 12.4 101570 85
2007-11-08 10:56 51°14.219 2°37.93 13.1 335 12.3 101560 85
2007-11-08 10:57 51°14.188 2°37.818 12.9 280 12.3 101560 85
2007-11-08 10:58 51°14.156 2°37.71 14.9 336 12.3 101550 84
2007-11-08 10:59 51°14.125 2°37.599 11.5 336 12.3 101560 83
2007-11-08 11:00 51°14.093 2°37.484 14.7 282 12.4 101540 84
2007-11-08 11:01 51°14.061 2°37.367 14.2 334 12.4 101550 84
2007-11-08 11:02 51°14.027 2°37.248 14.6 281 12.4 101540 84
2007-11-08 11:03 51°13.992 2°37.128 12.6 338 12.4 101550 84
2007-11-08 11:04 51°13.961 2°37.011 14.3 277 12.4 101540 84
2007-11-08 11:05 51°13.929 2°36.897 14.4 278 12.4 101530 83
2007-11-08 11:06 51°13.898 2°36.786 13.8 334 12.4 101550 83
2007-11-08 11:07 51°13.867 2°36.675 11.2 334 12.4 101540 84
2007-11-08 11:08 51°13.837 2°36.562 12.7 336 12.3 101540 82
2007-11-08 11:09 51°13.806 2°36.451 12 337 12.3 101530 82
2007-11-08 11:10 51°13.774 2°36.338 12.8 334 12.4 101520 83
2007-11-08 11:11 51°13.742 2°36.223 12.5 335 12.5 101540 83
2007-11-08 11:12 51°13.711 2°36.108 13.7 334 12.5 101520 84
2007-11-08 11:13 51°13.68 2°35.991 12.4 282 12.4 101520 84
2007-11-08 11:14 51°13.649 2°35.874 13 332 12.4 101520 84
2007-11-08 11:15 51°13.614 2°35.759 13.2 283 12.4 101510 84
2007-11-08 11:16 51°13.578 2°35.645 14.4 336 12.4 101520 83
2007-11-08 11:17 51°13.542 2°35.533 11.7 331 12.4 101500 83
2007-11-08 11:18 51°13.508 2°35.422 11.7 286 12.4 101520 84
2007-11-08 11:19 51°13.473 2°35.31 13.4 335 12.4 101510 84
2007-11-08 11:20 51°13.438 2°35.2 13.1 281 12.4 101500 83
2007-11-08 11:21 51°13.404 2°35.088 13.4 335 12.4 101500 83
2007-11-08 11:22 51°13.369 2°34.973 12.9 333 12.4 101500 83
2007-11-08 11:23 51°13.333 2°34.856 14.6 336 12.4 101500 83
2007-11-08 11:24 51°13.301 2°34.738 14.7 335 12.4 101500 83
2007-11-08 11:25 51°13.265 2°34.621 13.8 337 12.4 101490 83
2007-11-08 11:26 51°13.233 2°34.507 15.1 333 12.4 101480 82
2007-11-08 11:27 51°13.2 2°34.392 14.3 332 12.4 101480 82
2007-11-08 11:28 51°13.168 2°34.275 14.2 337 12.4 101480 83
2007-11-08 11:29 51°13.135 2°34.16 13.9 333 12.4 101480 82
2007-11-08 11:30 51°13.105 2°34.044 11.3 329 12.4 101480 83
2007-11-08 11:31 51°13.117 2°33.917 11.9 305 12.4 101480 84
2007-11-08 11:32 51°13.172 2°33.824 14.1 32 12.5 101460 84
2007-11-08 11:33 51°13.228 2°33.745 11 305 12.5 101470 84
2007-11-08 11:34 51°13.282 2°33.66 15.7 36 12.5 101470 85
2007-11-08 11:35 51°13.335 2°33.574 14 308 12.4 101450 84
2007-11-08 11:36 51°13.407 2°33.491 11.7 238 12.4 101430 84
2007-11-08 11:37 51°13.496 2°33.461 13.9 308 12.4 101460 84
2007-11-08 11:38 51°13.584 2°33.466 14 250 12.4 101480 84
2007-11-08 11:39 51°13.672 2°33.486 13.3 251 12.4 101480 84
2007-11-08 11:40 51°13.761 2°33.504 11.7 310 12.4 101490 84
2007-11-08 11:41 51°13.849 2°33.523 10 254 12.5 101470 85
2007-11-08 11:42 51°13.936 2°33.545 13.5 249 12.4 101480 84
2007-11-08 11:43 51°14.024 2°33.557 8.7 247 12.4 101480 84
2007-11-08 11:44 51°14.112 2°33.574 9 305 12.4 101470 85
2007-11-08 11:45 51°14.2 2°33.593 9.7 252 12.4 101490 86
2007-11-08 11:46 51°14.286 2°33.615 9.6 251 12.4 101470 85
2007-11-08 11:47 51°14.371 2°33.657 7.2 259 12.4 101480 86
2007-11-08 11:48 51°14.447 2°33.717 8.2 261 12.4 101470 85
2007-11-08 11:49 51°14.518 2°33.775 9.5 303 12.4 101470 85
2007-11-08 11:50 51°14.587 2°33.833 9.1 265 12.4 101460 84
2007-11-08 11:51 51°14.656 2°33.888 8.7 304 12.5 101450 84
2007-11-08 11:52 51°14.728 2°33.949 10.3 262 12.4 101440 83
2007-11-08 11:53 51°14.803 2°34.009 8.4 307 12.5 101450 83
2007-11-08 11:54 51°14.88 2°34.074 6.2 279 12.5 101450 83
2007-11-08 11:55 51°14.958 2°34.134 6.7 306 12.5 101450 83
2007-11-08 11:56 51°15.032 2°34.196 6.2 282 12.6 101450 84
2007-11-08 11:57 51°15.104 2°34.253 7.8 284 12.5 101440 84
2007-11-08 11:58 51°15.176 2°34.321 7.1 307 12.5 101430 84
2007-11-08 11:59 51°15.25 2°34.394 6.9 312 12.5 101430 83
2007-11-08 12:00 51°15.323 2°34.464 10.5 309 12.5 101430 83
2007-11-08 12:01 51°15.391 2°34.53 8.5 303 12.5 101430 82
2007-11-08 12:02 51°15.459 2°34.59 8.4 304 12.5 101430 81
2007-11-08 12:03 51°15.525 2°34.655 6.3 303 12.5 101420 81
2007-11-08 12:04 51°15.593 2°34.721 7.8 304 12.5 101420 81
2007-11-08 12:05 51°15.659 2°34.788 10.4 280 12.5 101430 81
2007-11-08 12:06 51°15.724 2°34.856 7.8 307 12.5 101420 81
2007-11-08 12:07 51°15.789 2°34.923 7.7 278 12.6 101420 82
2007-11-08 12:08 51°15.854 2°34.988 9.7 310 12.6 101420 82
2007-11-08 12:09 51°15.92 2°35.059 8.2 54 12.6 101420 83
2007-11-08 12:10 51°15.985 2°35.134 9 57 12.6 101420 83
2007-11-08 12:11 51°16.052 2°35.207 9.4 83 12.5 101410 83
2007-11-08 12:12 51°16.119 2°35.281 10.4 310 12.6 101410 83
2007-11-08 12:13 51°16.182 2°35.355 11.7 285 12.5 101400 83
2007-11-08 12:14 51°16.247 2°35.43 8.9 59 12.5 101400 83
2007-11-08 12:15 51°16.311 2°35.506 10.1 82 12.6 101400 83
2007-11-08 12:16 51°16.377 2°35.586 12.6 56 12.6 101410 83
2007-11-08 12:17 51°16.441 2°35.666 8.4 75 12.5 101390 82
2007-11-08 12:18 51°16.506 2°35.743 9.9 57 12.6 101390 82
2007-11-08 12:19 51°16.571 2°35.82 10.5 56 12.6 101400 83
2007-11-08 12:20 51°16.636 2°35.896 11.2 35 12.5 101390 82
2007-11-08 12:21 51°16.7 2°35.972 8.1 77 12.6 101390 82
2007-11-08 12:22 51°16.764 2°36.048 8.4 50 12.6 101390 83
2007-11-08 12:23 51°16.829 2°36.121 8.1 74 12.6 101380 82
2007-11-08 12:24 51°16.892 2°36.195 7.2 312 12.6 101380 83
2007-11-08 12:25 51°16.956 2°36.272 8.3 56 12.6 101400 83
2007-11-08 12:26 51°17.019 2°36.352 10.8 81 12.6 101380 83
2007-11-08 12:27 51°17.083 2°36.431 9.1 56 12.6 101380 84
2007-11-08 12:28 51°17.148 2°36.51 11.6 305 12.5 101370 84
2007-11-08 12:29 51°17.215 2°36.59 9 35 12.5 101370 83
2007-11-08 12:30 51°17.282 2°36.67 8.4 53 12.5 101370 84
2007-11-08 12:31 51°17.349 2°36.751 8.8 58 12.6 101370 83
2007-11-08 12:32 51°17.414 2°36.831 9.9 55 12.5 101370 83
2007-11-08 12:33 51°17.469 2°36.929 8.1 53 12.5 101370 81
2007-11-08 12:34 51°17.502 2°37.046 9.2 40 12.6 101370 80
2007-11-08 12:35 51°17.498 2°37.169 9.6 30 12.7 101370 80
2007-11-08 12:36 51°17.448 2°37.259 12.6 9 12.7 101350 81
2007-11-08 12:37 51°17.372 2°37.251 12.7 340 12.6 101340 80
2007-11-08 12:38 51°17.315 2°37.161 15.4 343 12.7 101340 80
2007-11-08 12:39 51°17.252 2°37.056 15.3 342 12.7 101330 78
2007-11-08 12:40 51°17.199 2°36.957 15.6 282 12.7 101330 78
2007-11-08 12:41 51°17.146 2°36.865 15 339 12.8 101330 77
2007-11-08 12:42 51°17.091 2°36.773 13.6 282 12.8 101320 76
2007-11-08 12:43 51°17.031 2°36.683 14.1 342 12.8 101330 76
2007-11-08 12:44 51°16.974 2°36.602 13.8 284 12.8 101330 76
2007-11-08 12:45 51°16.914 2°36.511 12.5 341 12.8 101310 76
2007-11-08 12:46 51°16.855 2°36.419 15.5 280 12.9 101310 77
2007-11-08 12:47 51°16.798 2°36.331 13.9 338 12.9 101320 77
2007-11-08 12:48 51°16.741 2°36.249 16.4 340 12.9 101320 77
2007-11-08 12:49 51°16.683 2°36.164 14.3 340 12.9 101310 76
2007-11-08 12:50 51°16.627 2°36.077 13.1 280 12.9 101320 77
2007-11-08 12:51 51°16.569 2°35.992 14.1 338 12.9 101310 75
2007-11-08 12:52 51°16.512 2°35.907 13.3 337 12.9 101320 75
2007-11-08 12:53 51°16.456 2°35.827 13.1 341 13 101310 75
2007-11-08 12:54 51°16.39 2°35.757 15.5 339 13 101310 75
2007-11-08 12:55 51°16.326 2°35.689 14.3 342 12.9 101300 74
2007-11-08 12:56 51°16.261 2°35.617 14.4 345 13 101320 74
2007-11-08 12:57 51°16.2 2°35.548 16.3 342 13 101300 73
2007-11-08 12:58 51°16.135 2°35.481 16 345 13 101310 73
2007-11-08 12:59 51°16.073 2°35.413 14 342 12.9 101300 71
2007-11-08 13:00 51°16.009 2°35.342 15.2 342 13 101300 73
2007-11-08 13:01 51°15.942 2°35.257 14.4 343 13 101270 72
2007-11-08 13:02 51°15.875 2°35.173 16 279 13 101290 69
2007-11-08 13:03 51°15.807 2°35.091 13.8 344 13.1 101290 71
2007-11-08 13:04 51°15.74 2°35.01 14.7 282 13 101280 72
2007-11-08 13:05 51°15.672 2°34.938 14.3 345 13 101290 73
2007-11-08 13:06 51°15.602 2°34.872 16.7 280 13 101280 73
2007-11-08 13:07 51°15.534 2°34.809 15.4 346 13 101290 73
2007-11-08 13:08 51°15.466 2°34.743 13.8 344 12.9 101280 72
2007-11-08 13:09 51°15.399 2°34.686 14.3 346 12.9 101280 72
2007-11-08 13:10 51°15.335 2°34.63 15.6 346 12.9 101290 73
2007-11-08 13:11 51°15.268 2°34.572 13.4 343 12.9 101280 72
2007-11-08 13:12 51°15.199 2°34.513 15.8 283 12.9 101280 73
2007-11-08 13:13 51°15.128 2°34.459 14.9 347 13 101280 72
2007-11-08 13:14 51°15.064 2°34.397 15.1 348 13 101280 72
2007-11-08 13:15 51°14.996 2°34.336 14.9 348 12.9 101260 73
2007-11-08 13:16 51°14.926 2°34.279 13.3 344 13 101280 73
2007-11-08 13:17 51°14.856 2°34.216 15.7 344 13 101270 73
2007-11-08 13:18 51°14.782 2°34.16 16.3 351 13 101270 73
2007-11-08 13:19 51°14.701 2°34.134 13.7 351 13 101250 72
2007-11-08 13:20 51°14.619 2°34.105 13.8 350 13 101260 72
2007-11-08 13:21 51°14.537 2°34.078 14.7 348 13 101250 72
2007-11-08 13:22 51°14.459 2°34.053 16.3 351 13.1 101240 72
2007-11-08 13:23 51°14.382 2°34.028 14.2 349 13.1 101260 70
2007-11-08 13:24 51°14.301 2°34.001 14.3 348 13.1 101240 71
2007-11-08 13:25 51°14.222 2°33.974 14.2 349 13.1 101230 69
2007-11-08 13:26 51°14.144 2°33.95 14.2 353 13.1 101230 69
2007-11-08 13:27 51°14.066 2°33.925 15.4 354 13.1 101240 69
2007-11-08 13:28 51°13.991 2°33.901 17.1 352 13.1 101220 68
2007-11-08 13:29 51°13.914 2°33.874 14.6 351 13.2 101230 68
2007-11-08 13:30 51°13.837 2°33.849 16.4 350 13.2 101240 69
2007-11-08 13:31 51°13.76 2°33.823 14.5 349 13.2 101230 68
2007-11-08 13:32 51°13.683 2°33.8 14 347 13.1 101240 69
2007-11-08 13:33 51°13.609 2°33.768 17.2 352 13.2 101230 70
2007-11-08 13:34 51°13.533 2°33.736 15.4 349 13.2 101240 69
2007-11-08 13:35 51°13.457 2°33.704 14.6 345 13.1 101230 68
2007-11-08 13:36 51°13.377 2°33.671 14.6 349 13.1 101230 68
2007-11-08 13:37 51°13.293 2°33.667 16 354 13.1 101210 67
2007-11-08 13:38 51°13.205 2°33.668 15 354 13.1 101220 67
2007-11-08 13:39 51°13.118 2°33.663 16.3 352 13.1 101230 69
2007-11-08 13:40 51°13.03 2°33.657 14.4 355 13.1 101210 68
2007-11-08 13:41 51°12.939 2°33.654 17.8 357 13.1 101230 69
2007-11-08 13:42 51°12.851 2°33.654 15.4 356 13.1 101240 70
2007-11-08 13:43 51°12.765 2°33.664 12.6 1 13.1 101220 70
2007-11-08 13:44 51°12.676 2°33.703 14 9 13.1 101240 71
2007-11-08 13:45 51°12.594 2°33.805 13.1 21 13 101230 72
2007-11-08 13:46 51°12.558 2°33.944 12.4 41 13 101250 71
2007-11-08 13:47 51°12.562 2°34.087 11 77 12.9 101270 71
2007-11-08 13:48 51°12.589 2°34.225 6.2 79 13 101280 71
2007-11-08 13:49 51°12.639 2°34.343 9.9 59 13 101280 71
2007-11-08 13:50 51°12.698 2°34.44 10 82 13 101270 71
2007-11-08 13:51 51°12.76 2°34.528 9.7 57 13 101270 71
2007-11-08 13:52 51°12.823 2°34.614 9.6 82 12.9 101260 70
2007-11-08 13:53 51°12.88 2°34.704 10.5 82 13 101270 71
2007-11-08 13:54 51°12.935 2°34.798 10.8 32 13 101260 72
2007-11-08 13:55 51°12.991 2°34.89 8 36 13 101260 73
2007-11-08 13:56 51°13.048 2°34.985 13.8 36 12.9 101250 72
2007-11-08 13:57 51°13.105 2°35.081 11 33 12.9 101250 70
2007-11-08 13:58 51°13.16 2°35.174 8.3 37 13 101260 70
2007-11-08 13:59 51°13.206 2°35.278 8.1 33 13 101250 72
2007-11-08 14:00 51°13.244 2°35.39 6.3 31 13 101250 72
2007-11-08 14:01 51°13.282 2°35.501 12.4 34 13.2 101240 70
2007-11-08 14:02 51°13.326 2°35.611 15.4 32 13.1 101250 71
2007-11-08 14:03 51°13.374 2°35.717 12.5 35 13.1 101240 70
2007-11-08 14:04 51°13.422 2°35.821 9.2 33 13 101230 70
2007-11-08 14:05 51°13.459 2°35.932 7.4 38 13 101240 71
2007-11-08 14:06 51°13.492 2°36.045 7.6 38 13.2 101250 71
2007-11-08 14:07 51°13.532 2°36.151 9.7 40 13.1 101240 69
2007-11-08 14:08 51°13.576 2°36.255 9.9 38 13.1 101240 69
2007-11-08 14:09 51°13.621 2°36.363 9.3 36 13.1 101230 70
2007-11-08 14:10 51°13.661 2°36.472 6.6 36 13.1 101230 71
2007-11-08 14:11 51°13.698 2°36.584 7.2 32 13.1 101230 70
2007-11-08 14:12 51°13.731 2°36.696 7.8 33 13.4 101230 73
2007-11-08 14:13 51°13.761 2°36.804 6.5 37 13.4 101220 71
2007-11-08 14:14 51°13.797 2°36.912 9.1 38 13.4 101230 71
2007-11-08 14:15 51°13.836 2°37.021 8.3 38 13.3 101230 69
2007-11-08 14:16 51°13.875 2°37.129 6.8 31 13.2 101210 71
2007-11-08 14:17 51°13.913 2°37.233 9.5 36 13.2 101210 72
2007-11-08 14:18 51°13.949 2°37.337 6.5 33 13.1 101220 73
2007-11-08 14:19 51°13.984 2°37.443 8.1 32 13.2 101210 73
2007-11-08 14:20 51°14.02 2°37.552 7.6 38 13.3 101210 73
2007-11-08 14:21 51°14.058 2°37.662 10.1 36 13.2 101210 72
2007-11-08 14:22 51°14.098 2°37.773 9.2 37 13.2 101210 73
2007-11-08 14:23 51°14.138 2°37.882 6.5 33 13.1 101210 74
2007-11-08 14:24 51°14.174 2°37.99 7.9 38 13.1 101210 75
2007-11-08 14:25 51°14.197 2°38.107 8.9 33 13.1 101200 75
2007-11-08 14:26 51°14.218 2°38.224 9.9 36 13.1 101210 75
2007-11-08 14:27 51°14.243 2°38.348 10 37 13 101190 76
2007-11-08 14:28 51°14.269 2°38.476 12.3 39 13 101180 76
2007-11-08 14:29 51°14.297 2°38.608 6.4 32 13 101190 74
2007-11-08 14:30 51°14.328 2°38.737 9 33 13.2 101190 74
2007-11-08 14:31 51°14.349 2°38.867 9.4 37 13.1 101180 73
2007-11-08 14:32 51°14.352 2°38.996 11.1 38 13.1 101180 75
2007-11-08 14:33 51°14.343 2°39.12 10.4 35 13 101160 75
2007-11-08 14:34 51°14.337 2°39.243 11 38 13 101160 76
2007-11-08 14:35 51°14.328 2°39.366 10.2 31 13 101160 76
2007-11-08 14:36 51°14.299 2°39.474 14.9 17 13 101150 77
2007-11-08 14:37 51°14.225 2°39.559 16.1 8 13 101140 77
2007-11-08 14:38 51°14.137 2°39.565 16.6 351 12.9 101130 78
2007-11-08 14:39 51°14.069 2°39.5 16.5 345 13 101110 77
2007-11-08 14:40 51°14.01 2°39.419 15.3 343 13 101110 77
2007-11-08 14:41 51°13.943 2°39.342 17.4 343 13 101110 77
2007-11-08 14:42 51°13.87 2°39.261 16 344 13 101090 77
2007-11-08 14:43 51°13.806 2°39.196 14.3 347 13 101100 77
2007-11-08 14:44 51°13.74 2°39.134 14.6 347 12.9 101100 78
2007-11-08 14:45 51°13.67 2°39.063 16.2 350 12.9 101090 79
2007-11-08 14:46 51°13.599 2°38.996 17.4 347 12.9 101080 78
2007-11-08 14:47 51°13.525 2°38.924 19.6 347 12.9 101090 78
2007-11-08 14:48 51°13.45 2°38.862 17.9 349 12.9 101090 77
2007-11-08 14:49 51°13.378 2°38.795 17.9 350 13 101100 77
2007-11-08 14:50 51°13.304 2°38.726 17.2 347 13 101080 76
2007-11-08 14:51 51°13.236 2°38.662 15.4 347 13 101070 77
2007-11-08 14:52 51°13.164 2°38.596 15.2 348 13 101080 76
2007-11-08 14:53 51°13.096 2°38.528 15.6 346 13 101080 77
2007-11-08 14:54 51°13.024 2°38.461 16 348 13 101060 77
2007-11-08 14:55 51°12.953 2°38.393 17.3 348 13 101100 78
2007-11-08 14:56 51°12.88 2°38.324 15 346 13 101070 78
2007-11-08 14:57 51°12.805 2°38.251 16.5 348 12.9 101080 79
2007-11-08 14:58 51°12.727 2°38.191 15.3 351 12.9 101060 78
2007-11-08 14:59 51°12.651 2°38.126 16.8 353 12.9 101080 79
2007-11-08 15:00 51°12.568 2°38.081 15 349 12.9 101070 79
2007-11-08 15:01 51°12.483 2°38.043 15.6 354 12.9 101080 80
2007-11-08 15:02 51°12.399 2°38.006 15.1 357 12.9 101060 80
2007-11-08 15:03 51°12.315 2°37.964 16.6 351 12.9 101070 80
2007-11-08 15:04 51°12.231 2°37.928 15.7 352 12.9 101060 80
2007-11-08 15:05 51°12.153 2°37.883 15.8 348 12.9 101050 80
2007-11-08 15:06 51°12.074 2°37.833 17.3 351 12.9 101070 81
2007-11-08 15:07 51°11.997 2°37.787 17 347 12.9 101060 81
2007-11-08 15:08 51°11.921 2°37.739 14.5 347 12.9 101070 81
2007-11-08 15:09 51°11.845 2°37.689 15.1 349 12.9 101070 82
2007-11-08 15:10 51°11.766 2°37.631 15.3 347 12.9 101060 82
2007-11-08 15:11 51°11.688 2°37.571 14.9 346 12.9 101070 83
2007-11-08 15:12 51°11.611 2°37.511 15.5 346 12.8 101080 83
2007-11-08 15:13 51°11.537 2°37.453 15 347 12.8 101080 84
2007-11-08 15:14 51°11.467 2°37.388 15.5 344 12.8 101080 84
2007-11-08 15:15 51°11.397 2°37.318 16.9 349 12.8 101080 84
2007-11-08 15:16 51°11.326 2°37.247 15.7 346 12.8 101070 83
2007-11-08 15:17 51°11.252 2°37.171 15.3 346 12.8 101080 83
2007-11-08 15:18 51°11.177 2°37.098 14.6 344 12.8 101060 83
2007-11-08 15:19 51°11.104 2°37.032 17.8 348 12.8 101050 83
2007-11-08 15:20 51°11.024 2°36.983 15.3 354 12.8 101060 82
2007-11-08 15:21 51°10.931 2°36.97 15.3 357 12.8 101050 82
2007-11-08 15:22 51°10.844 2°36.962 14 1 12.8 101040 82
2007-11-08 15:23 51°10.762 2°36.955 15.2 355 12.8 101040 82
2007-11-08 15:24 51°10.658 2°36.933 19 357 12.9 101040 82
2007-11-08 15:25 51°10.539 2°36.913 14.5 1 12.9 101050 82
2007-11-08 15:26 51°10.417 2°36.973 15.7 14 12.9 101060 82
2007-11-08 15:27 51°10.319 2°37.118 9.5 23 12.9 101080 82
2007-11-08 15:28 51°10.285 2°37.29 10 39 12.9 101100 82
2007-11-08 15:29 51°10.278 2°37.428 13.9 44 12.9 101100 83
2007-11-08 15:30 51°10.269 2°37.55 13.9 43 12.9 101100 82
2007-11-08 15:31 51°10.26 2°37.668 9 39 12.9 101090 82
2007-11-08 15:32 51°10.291 2°37.791 10.8 39 12.9 101130 83
2007-11-08 15:33 51°10.359 2°37.881 14.3 37 12.9 101140 82
2007-11-08 15:34 51°10.43 2°37.972 11.6 33 12.9 101130 82
2007-11-08 15:35 51°10.496 2°38.073 11.6 35 12.9 101130 82
2007-11-08 15:36 51°10.555 2°38.184 11.1 34 12.9 101100 83
2007-11-08 15:37 51°10.604 2°38.314 8 37 12.9 101110 83
2007-11-08 15:38 51°10.652 2°38.438 9.9 36 12.9 101110 83
2007-11-08 15:39 51°10.703 2°38.552 10.6 33 12.9 101110 82
2007-11-08 15:40 51°10.752 2°38.665 12.3 36 12.9 101100 82
2007-11-08 15:41 51°10.793 2°38.783 8.3 33 12.9 101100 82
2007-11-08 15:42 51°10.823 2°38.907 10 32 13.1 101100 83
2007-11-08 15:43 51°10.858 2°39.032 9.4 33 13.1 101090 81
2007-11-08 15:44 51°10.896 2°39.155 8 36 13.1 101100 80
2007-11-08 15:45 51°10.933 2°39.278 9.2 34 13 101090 81
2007-11-08 15:46 51°10.97 2°39.399 9.7 40 13 101090 81
2007-11-08 15:47 51°11.007 2°39.519 9.3 39 13 101090 81
2007-11-08 15:48 51°11.045 2°39.636 6.5 36 13 101090 81
2007-11-08 15:49 51°11.083 2°39.754 8.8 32 13 101090 81
2007-11-08 15:50 51°11.114 2°39.874 9.6 33 13.1 101080 81
2007-11-08 15:51 51°11.139 2°39.998 9.9 34 13.2 101080 81
2007-11-08 15:52 51°11.17 2°40.121 6.7 36 13.2 101060 81
2007-11-08 15:53 51°11.209 2°40.237 6.5 34 13.3 101050 81
2007-11-08 15:54 51°11.252 2°40.348 10.5 38 13.3 101050 79
2007-11-08 15:55 51°11.295 2°40.458 7.3 37 13.1 101040 80
2007-11-08 15:56 51°11.338 2°40.569 10.5 39 13.1 101040 81
2007-11-08 15:57 51°11.383 2°40.678 8.8 36 13 101040 81
2007-11-08 15:58 51°11.427 2°40.788 7.6 34 13 101040 81
2007-11-08 15:59 51°11.465 2°40.899 8.7 38 12.9 101040 82
2007-11-08 16:00 51°11.507 2°41.01 11.4 55 12.9 101030 82
2007-11-08 16:01 51°11.549 2°41.125 10.2 36 12.9 101020 82
2007-11-08 16:02 51°11.591 2°41.24 9.2 38 12.9 101030 82
2007-11-08 16:03 51°11.635 2°41.353 11.8 33 12.9 101030 82
2007-11-08 16:04 51°11.678 2°41.464 11 53 12.9 101020 82
2007-11-08 16:05 51°11.722 2°41.578 12.3 37 12.9 101020 82
2007-11-08 16:06 51°11.765 2°41.692 11.8 39 13 101020 82
2007-11-08 16:07 51°11.807 2°41.806 11.9 36 13 101020 82
2007-11-08 16:08 51°11.851 2°41.916 10.4 33 12.9 101030 82
2007-11-08 16:09 51°11.897 2°42.023 9.4 39 12.9 101020 83
2007-11-08 16:10 51°11.942 2°42.129 11 33 12.9 101020 83
2007-11-08 16:11 51°11.989 2°42.234 10.3 33 12.9 101010 83
2007-11-08 16:12 51°12.038 2°42.339 11.5 38 12.9 101010 83
2007-11-08 16:13 51°12.119 2°42.499 9 32 12.9 101010 83
2007-11-08 16:14 51°12.235 2°42.735 7.1 38 12.9 101020 83
2007-11-08 16:15 51°12.347 2°42.997 5.4 33 12.9 101030 83
2007-11-08 16:16 51°12.458 2°43.26 8.1 37 12.9 101020 84
2007-11-08 16:17 51°12.565 2°43.528 7.6 35 12.9 101010 84
2007-11-08 16:18 51°12.669 2°43.798 8.5 33 12.9 101020 84
2007-11-08 16:19 51°12.773 2°44.065 10.2 32 12.9 101000 84
2007-11-08 16:20 51°12.881 2°44.331 7.2 36 12.9 101010 84
2007-11-08 16:21 51°12.995 2°44.586 9 36 12.9 100990 84
2007-11-08 16:22 51°13.116 2°44.834 6 37 12.9 101000 84
2007-11-08 16:23 51°13.238 2°45.08 8 38 12.9 100990 84
2007-11-08 16:24 51°13.362 2°45.327 7.3 38 12.9 100980 85
2007-11-08 16:25 51°13.492 2°45.563 7.9 38 12.9 100980 85
2007-11-08 16:26 51°13.646 2°45.76 5.3 265 12.8 100990 85
2007-11-08 16:27 51°13.808 2°45.936 11.1 268 12.8 100990 85
2007-11-08 16:28 51°13.974 2°46.106 9.5 270 12.8 100980 85
2007-11-08 16:29 51°14.133 2°46.294 6.1 38 12.8 100970 85
2007-11-08 16:30 51°14.206 2°46.578 6.6 31 12.8 100990 86
2007-11-08 16:31 51°14.231 2°46.889 5.1 43 12.9 101000 85
2007-11-08 16:32 51°14.264 2°47.198 6.1 37 12.9 100990 85
2007-11-08 16:33 51°14.307 2°47.507 4.5 38 13 100990 86
2007-11-08 16:34 51°14.356 2°47.807 3.5 32 13.2 100990 85
2007-11-08 16:35 51°14.4 2°48.113 5.4 38 13.3 100990 83
2007-11-08 16:36 51°14.447 2°48.417 6.1 33 13.4 100990 83
2007-11-08 16:37 51°14.492 2°48.722 6.3 38 13.3 100980 81
2007-11-08 16:38 51°14.537 2°49.022 6.2 33 13.2 100970 82
2007-11-08 16:39 51°14.585 2°49.326 6.8 34 13.3 100970 83
2007-11-08 16:40 51°14.634 2°49.629 5.2 38 13.4 100970 82
2007-11-08 16:41 51°14.682 2°49.931 7.8 39 13.6 100970 82
2007-11-08 16:42 51°14.729 2°50.237 4.8 36 13.8 100970 82
2007-11-08 16:43 51°14.778 2°50.534 5.4 39 13.9 100970 80
2007-11-08 16:44 51°14.803 2°50.841 5.8 33 13.8 100960 78
2007-11-08 16:45 51°14.829 2°51.153 6.5 36 13.5 100960 79
2007-11-08 16:46 51°14.854 2°51.462 7.8 34 13.3 100960 81
2007-11-08 16:47 51°14.87 2°51.774 6.5 33 13.1 100950 83
2007-11-08 16:48 51°14.866 2°52.084 7.2 43 13 100950 84
2007-11-08 16:49 51°14.841 2°52.398 7.9 35 12.9 100930 85
2007-11-08 16:50 51°14.813 2°52.715 8.5 31 12.9 100920 86
2007-11-08 16:51 51°14.782 2°53.027 7.3 38 12.8 100950 86
2007-11-08 16:52 51°14.738 2°53.339 7 31 12.8 100930 86
2007-11-08 16:53 51°14.696 2°53.649 9.4 31 12.7 100930 87
2007-11-08 16:54 51°14.648 2°53.946 10.3 32 12.7 100920 87
2007-11-08 16:55 51°14.588 2°54.241 10.8 30 12.7 100920 87
2007-11-08 16:56 51°14.521 2°54.542 8.3 27 12.7 100910 87
2007-11-08 16:57 51°14.439 2°54.835 11.8 26 12.7 100920 87
2007-11-08 16:58 51°14.338 2°55.105 10.6 19 12.7 100920 88
2007-11-08 16:59 51°14.21 2°55.338 12 359 12.6 100920 88
2007-11-08 17:00 51°14.063 2°55.463 6 13 12.6 100940 88
2007-11-08 17:01 51°13.942 2°55.547 9.1 351 12.7 100920 88
2007-11-08 17:02 51°13.817 2°55.641 5.8 337 12.7 100910 87
2007-11-08 17:03 51°13.738 2°55.74 8 22 12.7 100930 87
2007-11-08 17:04 51°13.689 2°55.838 4.2 25 12.8 100940 86
2007-11-08 17:05 51°13.669 2°55.918 5.9 19 12.8 100940 86
2007-11-08 17:06 51°13.664 2°55.952 4.9 39 12.8 100950 86